sensor_id;sensor_type;location;lat;lon;timestamp;temperature;humidity
22974;DHT22;11653;50.848;4.584;2022-09-20T00:00:05;13.40;99.90
22974;DHT22;11653;50.848;4.584;2022-09-20T00:02:31;13.30;99.90
22974;DHT22;11653;50.848;4.584;2022-09-20T00:04:57;13.30;99.90
22974;DHT22;11653;50.848;4.584;2022-09-20T00:07:23;13.20;99.90
22974;DHT22;11653;50.848;4.584;2022-09-20T00:09:48;13.10;99.90
22974;DHT22;11653;50.848;4.584;2022-09-20T00:12:14;13.10;99.90
22974;DHT22;11653;50.848;4.584;2022-09-20T00:14:40;13.00;99.90
22974;DHT22;11653;50.848;4.584;2022-09-20T00:17:06;12.90;99.90
22974;DHT22;11653;50.848;4.584;2022-09-20T00:19:32;12.90;99.90
22974;DHT22;11653;50.848;4.584;2022-09-20T00:21:57;12.80;99.90
22974;DHT22;11653;50.848;4.584;2022-09-20T00:24:24;12.70;99.90
22974;DHT22;11653;50.848;4.584;2022-09-20T00:26:50;12.70;99.90
22974;DHT22;11653;50.848;4.584;2022-09-20T00:29:16;12.70;99.90
22974;DHT22;11653;50.848;4.584;2022-09-20T00:31:41;12.60;99.90
22974;DHT22;11653;50.848;4.584;2022-09-20T00:34:09;12.60;99.90
22974;DHT22;11653;50.848;4.584;2022-09-20T00:36:53;12.50;99.90
22974;DHT22;11653;50.848;4.584;2022-09-20T00:39:19;12.50;99.90
22974;DHT22;11653;50.848;4.584;2022-09-20T00:41:45;12.40;99.90
22974;DHT22;11653;50.848;4.584;2022-09-20T00:47:20;12.30;99.90
22974;DHT22;11653;50.848;4.584;2022-09-20T00:49:48;12.30;99.90
22974;DHT22;11653;50.848;4.584;2022-09-20T00:52:14;12.30;99.90
22974;DHT22;11653;50.848;4.584;2022-09-20T00:54:41;12.20;99.90
22974;DHT22;11653;50.848;4.584;2022-09-20T00:57:07;12.20;99.90
22974;DHT22;11653;50.848;4.584;2022-09-20T00:59:35;12.10;99.90
22974;DHT22;11653;50.848;4.584;2022-09-20T01:02:15;12.10;99.90
22974;DHT22;11653;50.848;4.584;2022-09-20T01:04:43;12.00;99.90
22974;DHT22;11653;50.848;4.584;2022-09-20T01:07:13;11.80;99.90
22974;DHT22;11653;50.848;4.584;2022-09-20T01:09:40;11.80;99.90
22974;DHT22;11653;50.848;4.584;2022-09-20T01:12:12;11.70;99.90
22974;DHT22;11653;50.848;4.584;2022-09-20T01:14:39;11.70;99.90
22974;DHT22;11653;50.848;4.584;2022-09-20T01:17:07;11.60;99.90
22974;DHT22;11653;50.848;4.584;2022-09-20T01:22:04;11.50;99.90
22974;DHT22;11653;50.848;4.584;2022-09-20T01:24:49;11.50;99.90
22974;DHT22;11653;50.848;4.584;2022-09-20T01:27:44;11.50;99.90
22974;DHT22;11653;50.848;4.584;2022-09-20T01:30:15;11.50;99.90
22974;DHT22;11653;50.848;4.584;2022-09-20T01:35:29;11.40;99.90
22974;DHT22;11653;50.848;4.584;2022-09-20T01:39:04;11.30;99.90
22974;DHT22;11653;50.848;4.584;2022-09-20T01:43:50;11.20;99.90
22974;DHT22;11653;50.848;4.584;2022-09-20T01:46:29;11.20;99.90
22974;DHT22;11653;50.848;4.584;2022-09-20T01:49:24;11.20;99.90
22974;DHT22;11653;50.848;4.584;2022-09-20T02:00:28;11.20;99.90
22974;DHT22;11653;50.848;4.584;2022-09-20T02:05:57;11.30;99.90
22974;DHT22;11653;50.848;4.584;2022-09-20T02:11:25;11.30;99.90
22974;DHT22;11653;50.848;4.584;2022-09-20T02:19:29;11.60;99.90
22974;DHT22;11653;50.848;4.584;2022-09-20T02:25:10;11.80;99.90
22974;DHT22;11653;50.848;4.584;2022-09-20T02:39:26;12.10;99.90
22974;DHT22;11653;50.848;4.584;2022-09-20T02:42:10;12.10;99.90
22974;DHT22;11653;50.848;4.584;2022-09-20T02:47:43;12.50;99.90
22974;DHT22;11653;50.848;4.584;2022-09-20T02:50:37;12.50;99.90
22974;DHT22;11653;50.848;4.584;2022-09-20T02:53:30;12.60;99.90
22974;DHT22;11653;50.848;4.584;2022-09-20T02:56:31;12.70;99.90
22974;DHT22;11653;50.848;4.584;2022-09-20T02:59:19;12.70;99.90
22974;DHT22;11653;50.848;4.584;2022-09-20T03:15:40;12.90;99.90
22974;DHT22;11653;50.848;4.584;2022-09-20T03:26:44;12.90;99.90
22974;DHT22;11653;50.848;4.584;2022-09-20T03:34:51;12.90;99.90
22974;DHT22;11653;50.848;4.584;2022-09-20T03:38:02;13.00;99.90
22974;DHT22;11653;50.848;4.584;2022-09-20T03:46:28;13.00;99.90
22974;DHT22;11653;50.848;4.584;2022-09-20T03:55:07;13.00;99.90
22974;DHT22;11653;50.848;4.584;2022-09-20T03:57:42;13.00;99.90
22974;DHT22;11653;50.848;4.584;2022-09-20T04:00:21;13.00;99.90
22974;DHT22;11653;50.848;4.584;2022-09-20T04:03:03;13.00;99.90
22974;DHT22;11653;50.848;4.584;2022-09-20T04:11:16;13.00;99.90
22974;DHT22;11653;50.848;4.584;2022-09-20T04:14:01;13.00;99.90
22974;DHT22;11653;50.848;4.584;2022-09-20T04:16:48;13.00;99.90
22974;DHT22;11653;50.848;4.584;2022-09-20T04:19:38;13.10;99.90
22974;DHT22;11653;50.848;4.584;2022-09-20T04:22:09;13.20;99.90
22974;DHT22;11653;50.848;4.584;2022-09-20T04:24:51;13.20;99.90
22974;DHT22;11653;50.848;4.584;2022-09-20T04:27:28;13.20;99.90
22974;DHT22;11653;50.848;4.584;2022-09-20T04:30:09;13.20;99.90
22974;DHT22;11653;50.848;4.584;2022-09-20T04:36:49;13.00;99.90
22974;DHT22;11653;50.848;4.584;2022-09-20T04:55:59;12.60;99.90
22974;DHT22;11653;50.848;4.584;2022-09-20T05:15:19;12.20;99.90
22974;DHT22;11653;50.848;4.584;2022-09-20T05:23:38;12.20;99.90
22974;DHT22;11653;50.848;4.584;2022-09-20T05:26:25;12.20;99.90
22974;DHT22;11653;50.848;4.584;2022-09-20T05:43:16;12.30;99.90
22974;DHT22;11653;50.848;4.584;2022-09-20T05:51:20;12.30;99.90
22974;DHT22;11653;50.848;4.584;2022-09-20T06:00:04;12.30;99.90
22974;DHT22;11653;50.848;4.584;2022-09-20T06:05:15;12.40;99.90
22974;DHT22;11653;50.848;4.584;2022-09-20T06:07:51;12.70;99.90
22974;DHT22;11653;50.848;4.584;2022-09-20T06:16:10;14.70;99.90
22974;DHT22;11653;50.848;4.584;2022-09-20T06:19:00;15.30;99.90
22974;DHT22;11653;50.848;4.584;2022-09-20T06:24:34;16.30;99.90
22974;DHT22;11653;50.848;4.584;2022-09-20T06:27:05;16.90;99.90
22974;DHT22;11653;50.848;4.584;2022-09-20T06:29:35;17.10;99.90
22974;DHT22;11653;50.848;4.584;2022-09-20T06:32:03;17.70;99.90
22974;DHT22;11653;50.848;4.584;2022-09-20T06:34:28;18.30;99.90
22974;DHT22;11653;50.848;4.584;2022-09-20T06:37:13;18.90;99.90
22974;DHT22;11653;50.848;4.584;2022-09-20T06:40:52;19.30;99.90
22974;DHT22;11653;50.848;4.584;2022-09-20T06:43:29;19.00;99.90
22974;DHT22;11653;50.848;4.584;2022-09-20T06:45:56;18.50;99.90
22974;DHT22;11653;50.848;4.584;2022-09-20T06:48:22;18.00;99.90
22974;DHT22;11653;50.848;4.584;2022-09-20T06:50:49;17.60;99.90
22974;DHT22;11653;50.848;4.584;2022-09-20T06:53:29;17.60;99.90
22974;DHT22;11653;50.848;4.584;2022-09-20T06:55:56;18.30;99.90
22974;DHT22;11653;50.848;4.584;2022-09-20T06:58:22;18.90;99.90
22974;DHT22;11653;50.848;4.584;2022-09-20T07:00:47;19.80;99.90
22974;DHT22;11653;50.848;4.584;2022-09-20T07:03:13;20.60;99.90
22974;DHT22;11653;50.848;4.584;2022-09-20T07:05:38;21.40;99.90
22974;DHT22;11653;50.848;4.584;2022-09-20T07:08:04;22.10;98.40
22974;DHT22;11653;50.848;4.584;2022-09-20T07:10:30;22.70;96.00
22974;DHT22;11653;50.848;4.584;2022-09-20T07:13:00;23.30;94.40
22974;DHT22;11653;50.848;4.584;2022-09-20T07:15:33;23.70;93.70
22974;DHT22;11653;50.848;4.584;2022-09-20T07:17:59;24.30;92.40
22974;DHT22;11653;50.848;4.584;2022-09-20T07:20:25;24.90;90.90
22974;DHT22;11653;50.848;4.584;2022-09-20T07:22:51;25.40;88.60
22974;DHT22;11653;50.848;4.584;2022-09-20T07:25:18;25.90;85.00
22974;DHT22;11653;50.848;4.584;2022-09-20T07:27:45;26.40;82.20
22974;DHT22;11653;50.848;4.584;2022-09-20T07:30:15;26.60;80.20
22974;DHT22;11653;50.848;4.584;2022-09-20T07:32:41;26.60;79.60
22974;DHT22;11653;50.848;4.584;2022-09-20T07:35:09;26.50;78.70
22974;DHT22;11653;50.848;4.584;2022-09-20T07:37:35;26.30;78.10
22974;DHT22;11653;50.848;4.584;2022-09-20T07:40:01;26.30;77.80
22974;DHT22;11653;50.848;4.584;2022-09-20T07:42:28;26.00;78.70
22974;DHT22;11653;50.848;4.584;2022-09-20T07:44:54;25.80;79.30
22974;DHT22;11653;50.848;4.584;2022-09-20T07:47:20;25.70;79.70
22974;DHT22;11653;50.848;4.584;2022-09-20T07:49:50;25.80;79.50
22974;DHT22;11653;50.848;4.584;2022-09-20T07:52:16;25.70;79.90
22974;DHT22;11653;50.848;4.584;2022-09-20T07:54:41;25.60;79.80
22974;DHT22;11653;50.848;4.584;2022-09-20T07:57:07;25.60;80.00
22974;DHT22;11653;50.848;4.584;2022-09-20T07:59:33;25.90;77.60
22974;DHT22;11653;50.848;4.584;2022-09-20T08:01:58;25.60;79.50
22974;DHT22;11653;50.848;4.584;2022-09-20T08:04:25;25.30;80.40
22974;DHT22;11653;50.848;4.584;2022-09-20T08:06:51;25.30;80.40
22974;DHT22;11653;50.848;4.584;2022-09-20T08:09:17;25.70;77.30
22974;DHT22;11653;50.848;4.584;2022-09-20T08:11:43;25.90;77.00
22974;DHT22;11653;50.848;4.584;2022-09-20T08:14:15;25.90;75.80
22974;DHT22;11653;50.848;4.584;2022-09-20T08:16:46;25.40;78.50
22974;DHT22;11653;50.848;4.584;2022-09-20T08:19:17;24.60;79.90
22974;DHT22;11653;50.848;4.584;2022-09-20T08:21:43;23.70;84.60
22974;DHT22;11653;50.848;4.584;2022-09-20T08:24:09;23.10;86.80
22974;DHT22;11653;50.848;4.584;2022-09-20T08:26:36;22.60;89.80
22974;DHT22;11653;50.848;4.584;2022-09-20T08:29:02;22.20;90.70
22974;DHT22;11653;50.848;4.584;2022-09-20T08:31:31;21.70;91.70
22974;DHT22;11653;50.848;4.584;2022-09-20T08:34:01;21.30;92.90
22974;DHT22;11653;50.848;4.584;2022-09-20T08:36:29;21.00;93.00
22974;DHT22;11653;50.848;4.584;2022-09-20T08:38:56;20.50;93.70
22974;DHT22;11653;50.848;4.584;2022-09-20T08:44:24;20.00;96.40
22974;DHT22;11653;50.848;4.584;2022-09-20T08:47:19;19.80;97.60
22974;DHT22;11653;50.848;4.584;2022-09-20T08:49:46;19.60;98.00
22974;DHT22;11653;50.848;4.584;2022-09-20T08:52:18;19.40;98.30
22974;DHT22;11653;50.848;4.584;2022-09-20T08:54:44;19.30;99.50
22974;DHT22;11653;50.848;4.584;2022-09-20T08:57:16;19.20;99.90
22974;DHT22;11653;50.848;4.584;2022-09-20T08:59:43;19.10;99.90
22974;DHT22;11653;50.848;4.584;2022-09-20T09:02:17;19.20;99.90
22974;DHT22;11653;50.848;4.584;2022-09-20T09:04:44;19.10;99.90
22974;DHT22;11653;50.848;4.584;2022-09-20T09:07:17;19.00;99.90
22974;DHT22;11653;50.848;4.584;2022-09-20T09:09:47;19.10;99.90
22974;DHT22;11653;50.848;4.584;2022-09-20T09:12:25;19.00;99.90
22974;DHT22;11653;50.848;4.584;2022-09-20T09:14:56;19.00;99.90
22974;DHT22;11653;50.848;4.584;2022-09-20T09:17:28;19.00;99.90
22974;DHT22;11653;50.848;4.584;2022-09-20T09:19:56;19.10;99.90
22974;DHT22;11653;50.848;4.584;2022-09-20T09:22:40;19.10;99.90
22974;DHT22;11653;50.848;4.584;2022-09-20T09:27:32;19.30;99.90
22974;DHT22;11653;50.848;4.584;2022-09-20T09:29:59;19.30;99.90
22974;DHT22;11653;50.848;4.584;2022-09-20T09:32:30;19.40;99.90
22974;DHT22;11653;50.848;4.584;2022-09-20T09:35:29;19.60;99.10
22974;DHT22;11653;50.848;4.584;2022-09-20T09:38:00;19.80;99.20
22974;DHT22;11653;50.848;4.584;2022-09-20T09:40:28;19.90;99.70
22974;DHT22;11653;50.848;4.584;2022-09-20T09:43:01;20.10;98.80
22974;DHT22;11653;50.848;4.584;2022-09-20T09:45:33;20.20;99.00
22974;DHT22;11653;50.848;4.584;2022-09-20T09:48:18;20.40;98.10
22974;DHT22;11653;50.848;4.584;2022-09-20T09:50:44;21.00;96.80
22974;DHT22;11653;50.848;4.584;2022-09-20T09:53:15;21.50;95.70
22974;DHT22;11653;50.848;4.584;2022-09-20T09:55:45;21.80;94.90
22974;DHT22;11653;50.848;4.584;2022-09-20T09:58:44;22.40;94.60
22974;DHT22;11653;50.848;4.584;2022-09-20T10:19:15;25.80;76.90
22974;DHT22;11653;50.848;4.584;2022-09-20T10:22:08;25.80;76.90
22974;DHT22;11653;50.848;4.584;2022-09-20T10:28:14;25.30;79.00
22974;DHT22;11653;50.848;4.584;2022-09-20T10:33:43;24.50;80.60
22974;DHT22;11653;50.848;4.584;2022-09-20T10:36:28;24.10;82.70
22974;DHT22;11653;50.848;4.584;2022-09-20T10:45:24;23.10;86.40
22974;DHT22;11653;50.848;4.584;2022-09-20T10:48:07;22.80;89.30
22974;DHT22;11653;50.848;4.584;2022-09-20T11:07:17;21.30;92.90
22974;DHT22;11653;50.848;4.584;2022-09-20T11:09:54;21.30;93.30
22974;DHT22;11653;50.848;4.584;2022-09-20T11:12:40;21.20;92.80
22974;DHT22;11653;50.848;4.584;2022-09-20T11:15:39;21.20;93.70
22974;DHT22;11653;50.848;4.584;2022-09-20T11:18:17;21.30;93.50
22974;DHT22;11653;50.848;4.584;2022-09-20T11:23:44;21.40;92.50
22974;DHT22;11653;50.848;4.584;2022-09-20T11:26:37;21.60;91.20
22974;DHT22;11653;50.848;4.584;2022-09-20T11:29:38;22.00;91.70
22974;DHT22;11653;50.848;4.584;2022-09-20T11:32:23;22.20;90.70
22974;DHT22;11653;50.848;4.584;2022-09-20T11:34:56;22.40;90.50
22974;DHT22;11653;50.848;4.584;2022-09-20T11:37:29;22.60;88.60
22974;DHT22;11653;50.848;4.584;2022-09-20T11:40:06;22.60;88.60
22974;DHT22;11653;50.848;4.584;2022-09-20T11:42:35;22.60;87.70
22974;DHT22;11653;50.848;4.584;2022-09-20T11:45:04;22.50;87.10
22974;DHT22;11653;50.848;4.584;2022-09-20T11:47:36;22.30;86.50
22974;DHT22;11653;50.848;4.584;2022-09-20T11:50:44;22.20;81.30
22974;DHT22;11653;50.848;4.584;2022-09-20T11:56:24;21.90;86.30
22974;DHT22;11653;50.848;4.584;2022-09-20T11:59:02;21.70;86.70
22974;DHT22;11653;50.848;4.584;2022-09-20T12:01:29;21.40;88.30
22974;DHT22;11653;50.848;4.584;2022-09-20T12:04:20;21.30;90.10
22974;DHT22;11653;50.848;4.584;2022-09-20T12:09:31;20.90;91.00
22974;DHT22;11653;50.848;4.584;2022-09-20T12:11:58;20.60;91.70
22974;DHT22;11653;50.848;4.584;2022-09-20T12:14:29;20.40;91.60
22974;DHT22;11653;50.848;4.584;2022-09-20T12:16:57;20.20;92.80
22974;DHT22;11653;50.848;4.584;2022-09-20T12:24:34;19.90;95.60
22974;DHT22;11653;50.848;4.584;2022-09-20T12:30:14;19.80;97.60
22974;DHT22;11653;50.848;4.584;2022-09-20T12:32:50;19.90;95.30
22974;DHT22;11653;50.848;4.584;2022-09-20T12:41:09;20.20;95.40
22974;DHT22;11653;50.848;4.584;2022-09-20T12:43:45;20.40;92.00
22974;DHT22;11653;50.848;4.584;2022-09-20T12:46:19;20.50;91.00
22974;DHT22;11653;50.848;4.584;2022-09-20T12:48:46;20.70;91.90
22974;DHT22;11653;50.848;4.584;2022-09-20T12:51:23;20.70;91.90
22974;DHT22;11653;50.848;4.584;2022-09-20T12:54:10;20.80;92.20
22974;DHT22;11653;50.848;4.584;2022-09-20T12:56:39;20.90;92.50
22974;DHT22;11653;50.848;4.584;2022-09-20T12:59:22;21.00;92.20
22974;DHT22;11653;50.848;4.584;2022-09-20T13:01:49;21.10;92.20
22974;DHT22;11653;50.848;4.584;2022-09-20T13:04:48;21.10;90.90
22974;DHT22;11653;50.848;4.584;2022-09-20T13:10:02;21.40;91.30
22974;DHT22;11653;50.848;4.584;2022-09-20T13:12:29;21.50;90.60
22974;DHT22;11653;50.848;4.584;2022-09-20T13:14:56;21.40;91.10
22974;DHT22;11653;50.848;4.584;2022-09-20T13:17:26;21.50;90.40
22974;DHT22;11653;50.848;4.584;2022-09-20T13:19:56;21.60;90.00
22974;DHT22;11653;50.848;4.584;2022-09-20T13:22:33;21.60;88.70
22974;DHT22;11653;50.848;4.584;2022-09-20T13:25:04;21.50;88.10
22974;DHT22;11653;50.848;4.584;2022-09-20T13:27:42;21.20;88.20
22974;DHT22;11653;50.848;4.584;2022-09-20T13:30:27;21.20;88.40
22974;DHT22;11653;50.848;4.584;2022-09-20T13:32:56;21.30;88.60
22974;DHT22;11653;50.848;4.584;2022-09-20T13:35:24;21.20;88.00
22974;DHT22;11653;50.848;4.584;2022-09-20T13:38:07;21.20;87.00
22974;DHT22;11653;50.848;4.584;2022-09-20T13:40:41;21.20;87.20
22974;DHT22;11653;50.848;4.584;2022-09-20T13:45:52;21.40;86.90
22974;DHT22;11653;50.848;4.584;2022-09-20T13:48:23;21.50;86.00
22974;DHT22;11653;50.848;4.584;2022-09-20T13:50:49;21.70;88.40
22974;DHT22;11653;50.848;4.584;2022-09-20T13:53:16;21.80;87.70
22974;DHT22;11653;50.848;4.584;2022-09-20T13:55:43;21.80;87.00
22974;DHT22;11653;50.848;4.584;2022-09-20T13:58:20;21.80;84.50
22974;DHT22;11653;50.848;4.584;2022-09-20T14:00:50;21.80;84.10
22974;DHT22;11653;50.848;4.584;2022-09-20T14:03:17;21.70;85.30
22974;DHT22;11653;50.848;4.584;2022-09-20T14:05:49;21.70;85.80
22974;DHT22;11653;50.848;4.584;2022-09-20T14:10:46;21.20;88.30
22974;DHT22;11653;50.848;4.584;2022-09-20T14:13:16;21.20;89.20
22974;DHT22;11653;50.848;4.584;2022-09-20T14:15:44;21.20;90.30
22974;DHT22;11653;50.848;4.584;2022-09-20T14:18:16;21.10;90.30
22974;DHT22;11653;50.848;4.584;2022-09-20T14:20:43;20.90;90.90
22974;DHT22;11653;50.848;4.584;2022-09-20T14:23:27;20.80;91.60
22974;DHT22;11653;50.848;4.584;2022-09-20T14:28:41;20.70;91.70
22974;DHT22;11653;50.848;4.584;2022-09-20T14:31:35;20.50;91.80
22974;DHT22;11653;50.848;4.584;2022-09-20T14:34:02;20.30;93.20
22974;DHT22;11653;50.848;4.584;2022-09-20T14:36:29;20.20;94.20
22974;DHT22;11653;50.848;4.584;2022-09-20T14:39:00;20.00;93.60
22974;DHT22;11653;50.848;4.584;2022-09-20T14:41:33;19.90;94.90
22974;DHT22;11653;50.848;4.584;2022-09-20T14:44:00;19.90;94.70
22974;DHT22;11653;50.848;4.584;2022-09-20T14:46:33;19.80;95.60
22974;DHT22;11653;50.848;4.584;2022-09-20T14:57:40;19.50;96.80
22974;DHT22;11653;50.848;4.584;2022-09-20T15:00:16;19.50;96.70
22974;DHT22;11653;50.848;4.584;2022-09-20T15:02:44;19.40;96.80
22974;DHT22;11653;50.848;4.584;2022-09-20T15:05:23;19.30;96.90
22974;DHT22;11653;50.848;4.584;2022-09-20T15:07:54;19.20;97.20
22974;DHT22;11653;50.848;4.584;2022-09-20T15:10:20;19.10;98.00
22974;DHT22;11653;50.848;4.584;2022-09-20T15:12:46;19.00;97.90
22974;DHT22;11653;50.848;4.584;2022-09-20T15:15:14;19.00;97.90
22974;DHT22;11653;50.848;4.584;2022-09-20T15:17:41;18.90;98.60
22974;DHT22;11653;50.848;4.584;2022-09-20T15:20:18;18.90;98.70
22974;DHT22;11653;50.848;4.584;2022-09-20T15:22:47;18.70;99.20
22974;DHT22;11653;50.848;4.584;2022-09-20T15:25:18;18.70;99.80
22974;DHT22;11653;50.848;4.584;2022-09-20T15:27:45;18.60;99.50
22974;DHT22;11653;50.848;4.584;2022-09-20T15:30:14;18.50;99.90
22974;DHT22;11653;50.848;4.584;2022-09-20T15:32:41;18.60;99.90
22974;DHT22;11653;50.848;4.584;2022-09-20T15:35:07;18.70;99.90
22974;DHT22;11653;50.848;4.584;2022-09-20T15:37:33;18.60;99.90
22974;DHT22;11653;50.848;4.584;2022-09-20T15:39:59;18.60;99.90
22974;DHT22;11653;50.848;4.584;2022-09-20T15:42:25;18.60;99.90
22974;DHT22;11653;50.848;4.584;2022-09-20T15:44:50;18.50;99.90
22974;DHT22;11653;50.848;4.584;2022-09-20T15:47:16;18.50;99.90
22974;DHT22;11653;50.848;4.584;2022-09-20T15:49:42;18.30;99.90
22974;DHT22;11653;50.848;4.584;2022-09-20T15:52:11;18.30;99.90
22974;DHT22;11653;50.848;4.584;2022-09-20T15:54:38;18.10;99.90
22974;DHT22;11653;50.848;4.584;2022-09-20T15:57:04;18.10;99.90
22974;DHT22;11653;50.848;4.584;2022-09-20T15:59:29;18.00;99.90
22974;DHT22;11653;50.848;4.584;2022-09-20T16:01:57;18.00;99.90
22974;DHT22;11653;50.848;4.584;2022-09-20T16:04:24;17.90;99.90
22974;DHT22;11653;50.848;4.584;2022-09-20T16:06:51;17.80;99.90
22974;DHT22;11653;50.848;4.584;2022-09-20T16:09:17;17.80;99.90
22974;DHT22;11653;50.848;4.584;2022-09-20T16:11:43;17.80;99.90
22974;DHT22;11653;50.848;4.584;2022-09-20T16:14:08;17.90;99.90
22974;DHT22;11653;50.848;4.584;2022-09-20T16:16:34;18.00;99.90
22974;DHT22;11653;50.848;4.584;2022-09-20T16:19:00;18.00;99.90
22974;DHT22;11653;50.848;4.584;2022-09-20T16:21:47;18.00;99.90
22974;DHT22;11653;50.848;4.584;2022-09-20T16:24:14;18.00;99.90
22974;DHT22;11653;50.848;4.584;2022-09-20T16:26:41;18.00;99.90
22974;DHT22;11653;50.848;4.584;2022-09-20T16:29:07;18.10;99.90
22974;DHT22;11653;50.848;4.584;2022-09-20T16:31:45;18.20;99.90
22974;DHT22;11653;50.848;4.584;2022-09-20T16:34:19;18.30;99.90
22974;DHT22;11653;50.848;4.584;2022-09-20T16:36:47;18.30;99.90
22974;DHT22;11653;50.848;4.584;2022-09-20T16:39:14;18.30;99.90
22974;DHT22;11653;50.848;4.584;2022-09-20T16:41:41;18.30;99.90
22974;DHT22;11653;50.848;4.584;2022-09-20T16:44:07;18.30;99.90
22974;DHT22;11653;50.848;4.584;2022-09-20T16:46:33;18.20;99.90
22974;DHT22;11653;50.848;4.584;2022-09-20T16:49:03;18.00;99.90
22974;DHT22;11653;50.848;4.584;2022-09-20T16:51:31;17.90;99.90
22974;DHT22;11653;50.848;4.584;2022-09-20T16:54:00;17.80;99.90
22974;DHT22;11653;50.848;4.584;2022-09-20T16:56:27;17.70;99.90
22974;DHT22;11653;50.848;4.584;2022-09-20T16:58:54;17.60;99.90
22974;DHT22;11653;50.848;4.584;2022-09-20T17:01:20;17.50;99.90
22974;DHT22;11653;50.848;4.584;2022-09-20T17:03:46;17.40;99.90
22974;DHT22;11653;50.848;4.584;2022-09-20T17:06:13;17.30;99.90
22974;DHT22;11653;50.848;4.584;2022-09-20T17:08:41;17.20;99.90
22974;DHT22;11653;50.848;4.584;2022-09-20T17:11:09;17.20;99.90
22974;DHT22;11653;50.848;4.584;2022-09-20T17:13:36;17.20;99.90
22974;DHT22;11653;50.848;4.584;2022-09-20T17:16:25;17.10;99.90
22974;DHT22;11653;50.848;4.584;2022-09-20T17:19:00;17.00;99.90
22974;DHT22;11653;50.848;4.584;2022-09-20T17:21:27;16.90;99.90
22974;DHT22;11653;50.848;4.584;2022-09-20T17:23:55;16.80;99.90
22974;DHT22;11653;50.848;4.584;2022-09-20T17:28:51;16.60;99.90
22974;DHT22;11653;50.848;4.584;2022-09-20T17:31:22;16.50;99.90
22974;DHT22;11653;50.848;4.584;2022-09-20T17:33:49;16.30;99.90
22974;DHT22;11653;50.848;4.584;2022-09-20T17:36:17;16.20;99.90
22974;DHT22;11653;50.848;4.584;2022-09-20T17:38:46;16.10;99.90
22974;DHT22;11653;50.848;4.584;2022-09-20T17:41:16;16.00;99.90
22974;DHT22;11653;50.848;4.584;2022-09-20T17:43:42;15.90;99.90
22974;DHT22;11653;50.848;4.584;2022-09-20T17:46:15;15.80;99.90
22974;DHT22;11653;50.848;4.584;2022-09-20T17:48:43;15.70;99.90
22974;DHT22;11653;50.848;4.584;2022-09-20T17:51:18;15.60;99.90
22974;DHT22;11653;50.848;4.584;2022-09-20T17:53:44;15.60;99.90
22974;DHT22;11653;50.848;4.584;2022-09-20T17:56:11;15.50;99.90
22974;DHT22;11653;50.848;4.584;2022-09-20T17:58:39;15.40;99.90
22974;DHT22;11653;50.848;4.584;2022-09-20T18:01:07;15.30;99.90
22974;DHT22;11653;50.848;4.584;2022-09-20T18:03:35;15.10;99.90
22974;DHT22;11653;50.848;4.584;2022-09-20T18:06:12;15.10;99.90
22974;DHT22;11653;50.848;4.584;2022-09-20T18:08:38;15.00;99.90
22974;DHT22;11653;50.848;4.584;2022-09-20T18:11:04;14.90;99.90
22974;DHT22;11653;50.848;4.584;2022-09-20T18:13:30;14.80;99.90
22974;DHT22;11653;50.848;4.584;2022-09-20T18:15:56;14.70;99.90
22974;DHT22;11653;50.848;4.584;2022-09-20T18:18:22;14.60;99.90
22974;DHT22;11653;50.848;4.584;2022-09-20T18:20:47;14.60;99.90
22974;DHT22;11653;50.848;4.584;2022-09-20T18:23:13;14.50;99.90
22974;DHT22;11653;50.848;4.584;2022-09-20T18:25:39;14.40;99.90
22974;DHT22;11653;50.848;4.584;2022-09-20T18:28:23;14.30;99.90
22974;DHT22;11653;50.848;4.584;2022-09-20T18:31:02;14.20;99.90
22974;DHT22;11653;50.848;4.584;2022-09-20T18:33:29;14.20;99.90
22974;DHT22;11653;50.848;4.584;2022-09-20T18:36:03;14.20;99.90
22974;DHT22;11653;50.848;4.584;2022-09-20T18:38:30;14.20;99.90
22974;DHT22;11653;50.848;4.584;2022-09-20T18:40:59;14.20;99.90
22974;DHT22;11653;50.848;4.584;2022-09-20T18:43:29;14.20;99.90
22974;DHT22;11653;50.848;4.584;2022-09-20T18:45:56;14.10;99.90
22974;DHT22;11653;50.848;4.584;2022-09-20T18:48:23;14.10;99.90
22974;DHT22;11653;50.848;4.584;2022-09-20T18:51:00;14.00;99.90
22974;DHT22;11653;50.848;4.584;2022-09-20T18:53:31;14.00;99.90
22974;DHT22;11653;50.848;4.584;2022-09-20T18:58:58;13.90;99.90
22974;DHT22;11653;50.848;4.584;2022-09-20T19:09:42;13.50;99.90
22974;DHT22;11653;50.848;4.584;2022-09-20T19:12:27;13.50;99.90
22974;DHT22;11653;50.848;4.584;2022-09-20T19:18:05;13.40;99.90
22974;DHT22;11653;50.848;4.584;2022-09-20T19:21:03;13.30;99.90
22974;DHT22;11653;50.848;4.584;2022-09-20T19:23:55;13.30;99.90
22974;DHT22;11653;50.848;4.584;2022-09-20T19:26:26;13.20;99.90
22974;DHT22;11653;50.848;4.584;2022-09-20T19:28:54;13.10;99.90
22974;DHT22;11653;50.848;4.584;2022-09-20T19:31:31;13.00;99.90
22974;DHT22;11653;50.848;4.584;2022-09-20T19:33:59;13.00;99.90
22974;DHT22;11653;50.848;4.584;2022-09-20T19:48:10;12.80;99.90
22974;DHT22;11653;50.848;4.584;2022-09-20T19:50:40;12.80;99.90
22974;DHT22;11653;50.848;4.584;2022-09-20T19:53:10;12.70;99.90
22974;DHT22;11653;50.848;4.584;2022-09-20T19:55:37;12.70;99.90
22974;DHT22;11653;50.848;4.584;2022-09-20T19:58:03;12.70;99.90
22974;DHT22;11653;50.848;4.584;2022-09-20T20:00:29;12.80;99.90
22974;DHT22;11653;50.848;4.584;2022-09-20T20:02:56;12.80;99.90
22974;DHT22;11653;50.848;4.584;2022-09-20T20:05:22;12.70;99.90
22974;DHT22;11653;50.848;4.584;2022-09-20T20:16:40;12.70;99.90
22974;DHT22;11653;50.848;4.584;2022-09-20T20:21:57;12.60;99.90
22974;DHT22;11653;50.848;4.584;2022-09-20T20:27:03;12.50;99.90
22974;DHT22;11653;50.848;4.584;2022-09-20T20:29:29;12.40;99.90
22974;DHT22;11653;50.848;4.584;2022-09-20T20:31:55;12.40;99.90
22974;DHT22;11653;50.848;4.584;2022-09-20T20:34:20;12.40;99.90
22974;DHT22;11653;50.848;4.584;2022-09-20T20:36:47;12.30;99.90
22974;DHT22;11653;50.848;4.584;2022-09-20T20:39:13;12.20;99.90
22974;DHT22;11653;50.848;4.584;2022-09-20T20:41:40;12.20;99.90
22974;DHT22;11653;50.848;4.584;2022-09-20T20:44:07;12.10;99.90
22974;DHT22;11653;50.848;4.584;2022-09-20T20:46:33;12.10;99.90
22974;DHT22;11653;50.848;4.584;2022-09-20T20:49:01;12.00;99.90
22974;DHT22;11653;50.848;4.584;2022-09-20T20:51:27;11.90;99.90
22974;DHT22;11653;50.848;4.584;2022-09-20T20:53:54;11.90;99.90
22974;DHT22;11653;50.848;4.584;2022-09-20T20:56:22;11.80;99.90
22974;DHT22;11653;50.848;4.584;2022-09-20T20:58:50;11.80;99.90
22974;DHT22;11653;50.848;4.584;2022-09-20T21:01:22;11.70;99.90
22974;DHT22;11653;50.848;4.584;2022-09-20T21:03:50;11.70;99.90
22974;DHT22;11653;50.848;4.584;2022-09-20T21:06:17;11.60;99.90
22974;DHT22;11653;50.848;4.584;2022-09-20T21:08:45;11.50;99.90
22974;DHT22;11653;50.848;4.584;2022-09-20T21:11:14;11.50;99.90